createdAt,value
2023-04-23T00:00:58.693Z,47.76
2023-04-23T00:02:31.089Z,47.37
2023-04-23T00:04:03.117Z,47.20
2023-04-23T00:05:36.652Z,47.68
2023-04-23T00:07:09.629Z,47.84
2023-04-23T00:08:41.737Z,47.08
2023-04-23T00:10:13.672Z,47.39
2023-04-23T00:11:45.312Z,47.80
2023-04-23T00:13:17.098Z,47.43
2023-04-23T00:14:48.776Z,47.64
2023-04-23T00:16:21.267Z,47.86
2023-04-23T00:17:53.113Z,47.71
2023-04-23T00:19:24.693Z,47.71
2023-04-23T00:20:56.270Z,48.22
2023-04-23T00:22:27.952Z,47.79
2023-04-23T00:23:59.854Z,48.18
2023-04-23T00:25:31.759Z,47.89
2023-04-23T00:27:03.423Z,48.12
2023-04-23T00:28:35.730Z,47.61
2023-04-23T00:30:07.515Z,47.92
2023-04-23T00:31:39.235Z,48.10
2023-04-23T00:33:11.059Z,48.30
2023-04-23T00:34:43.127Z,48.08
2023-04-23T00:36:15.010Z,48.25
2023-04-23T00:37:46.665Z,47.99
2023-04-23T00:39:18.326Z,48.21
2023-04-23T00:40:50.262Z,48.36
2023-04-23T00:42:22.072Z,48.37
2023-04-23T00:43:53.989Z,48.78
2023-04-23T00:45:25.615Z,48.52
2023-04-23T00:46:57.217Z,48.58
2023-04-23T00:48:29.529Z,48.72
2023-04-23T00:50:01.143Z,48.71
2023-04-23T00:51:32.941Z,48.44
2023-04-23T00:53:04.622Z,48.53
2023-04-23T00:54:36.188Z,48.75
2023-04-23T00:56:08.728Z,49.07
2023-04-23T00:57:40.928Z,48.82
2023-04-23T00:59:12.579Z,48.88
2023-04-23T01:00:46.517Z,48.58
2023-04-23T01:02:18.253Z,48.47
2023-04-23T01:03:50.180Z,48.47
2023-04-23T01:05:21.859Z,48.40
2023-04-23T01:06:53.933Z,48.30
2023-04-23T01:08:26.240Z,48.21
2023-04-23T01:09:57.769Z,48.46
2023-04-23T01:11:29.420Z,48.16
2023-04-23T01:13:01.062Z,48.38
2023-04-23T01:14:33.845Z,48.45
2023-04-23T01:16:06.438Z,48.32
2023-04-23T01:17:38.729Z,48.84
2023-04-23T01:19:11.177Z,48.60
2023-04-23T01:20:44.139Z,48.55
2023-04-23T01:22:16.756Z,48.70
2023-04-23T01:23:49.042Z,48.76
2023-04-23T01:25:20.649Z,48.62
2023-04-23T01:26:53.030Z,48.66
2023-04-23T01:28:24.730Z,48.57
2023-04-23T01:29:56.299Z,48.58
2023-04-23T01:31:28.685Z,48.92
2023-04-23T01:33:01.088Z,48.67
2023-04-23T01:34:32.893Z,48.87
2023-04-23T01:36:04.558Z,49.08
2023-04-23T01:37:36.921Z,49.15
2023-04-23T01:39:09.744Z,49.17
2023-04-23T01:40:41.992Z,49.12
2023-04-23T01:42:13.798Z,49.18
2023-04-23T01:43:45.609Z,49.23
2023-04-23T01:45:20.205Z,49.25
2023-04-23T01:46:52.728Z,49.37
2023-04-23T01:48:24.868Z,49.57
2023-04-23T01:49:56.622Z,49.34
2023-04-23T01:51:28.364Z,49.27
2023-04-23T01:53:00.135Z,49.37
2023-04-23T01:54:31.967Z,49.43
2023-04-23T01:56:03.649Z,49.44
2023-04-23T01:57:35.584Z,49.15
2023-04-23T01:59:07.657Z,48.99
2023-04-23T02:00:39.429Z,49.23
2023-04-23T02:02:14.030Z,49.24
2023-04-23T02:03:46.497Z,49.32
2023-04-23T02:05:18.921Z,49.69
2023-04-23T02:06:50.867Z,49.65
2023-04-23T02:08:22.884Z,49.43
2023-04-23T02:09:54.994Z,50.09
2023-04-23T02:11:27.148Z,50.02
2023-04-23T02:12:59.154Z,49.69
2023-04-23T02:14:30.895Z,50.11
2023-04-23T02:16:02.838Z,50.04
2023-04-23T02:17:34.617Z,49.82
2023-04-23T02:19:06.453Z,49.90
2023-04-23T02:20:40.801Z,50.34
2023-04-23T02:22:12.412Z,50.37
2023-04-23T02:23:44.022Z,50.07
2023-04-23T02:25:17.134Z,49.95
2023-04-23T02:26:49.080Z,50.02
2023-04-23T02:28:20.600Z,50.29
2023-04-23T02:29:52.394Z,50.01
2023-04-23T02:31:24.030Z,50.16
2023-04-23T02:32:56.205Z,50.53
2023-04-23T02:34:27.818Z,50.16
2023-04-23T02:35:59.375Z,50.61
2023-04-23T02:37:31.086Z,50.49
2023-04-23T02:39:02.697Z,50.26
2023-04-23T02:40:34.710Z,50.73
2023-04-23T02:42:06.293Z,50.78
2023-04-23T02:43:37.970Z,50.29
2023-04-23T02:45:10.945Z,50.38
2023-04-23T02:46:42.730Z,50.11
2023-04-23T02:48:14.264Z,50.42
2023-04-23T02:49:47.724Z,50.49
2023-04-23T02:51:19.230Z,50.49
2023-04-23T02:52:50.950Z,50.31
2023-04-23T02:54:22.779Z,50.17
2023-04-23T02:55:54.358Z,50.51
2023-04-23T02:57:25.890Z,50.41
2023-04-23T02:58:57.797Z,50.75
2023-04-23T03:00:29.352Z,50.31
2023-04-23T03:02:00.938Z,51.00
2023-04-23T03:03:32.985Z,50.33
2023-04-23T03:05:05.008Z,50.92
2023-04-23T03:06:37.068Z,50.88
2023-04-23T03:08:08.633Z,50.70
2023-04-23T03:09:42.403Z,51.18
2023-04-23T03:11:14.053Z,50.60
2023-04-23T03:12:45.682Z,50.40
2023-04-23T03:14:17.182Z,50.79
2023-04-23T03:15:48.786Z,50.70
2023-04-23T03:17:20.336Z,51.33
2023-04-23T03:18:51.841Z,50.75
2023-04-23T03:20:23.778Z,51.36
2023-04-23T03:21:55.686Z,51.19
2023-04-23T03:23:27.188Z,51.45
2023-04-23T03:24:58.839Z,51.32
2023-04-23T03:26:30.507Z,51.08
2023-04-23T03:28:02.493Z,50.73
2023-04-23T03:29:34.536Z,51.58
2023-04-23T03:31:06.199Z,50.96
2023-04-23T03:32:38.393Z,51.39
2023-04-23T03:34:10.103Z,51.23
2023-04-23T03:35:41.803Z,51.24
2023-04-23T03:37:13.629Z,51.28
2023-04-23T03:38:45.257Z,51.39
2023-04-23T03:40:16.854Z,51.03
2023-04-23T03:41:48.400Z,50.96
2023-04-23T03:43:20.276Z,51.47
2023-04-23T03:44:52.025Z,50.90
2023-04-23T03:46:23.636Z,51.14
2023-04-23T03:47:55.203Z,51.01
2023-04-23T03:49:26.784Z,50.97
2023-04-23T03:50:58.573Z,50.93
2023-04-23T03:52:30.072Z,50.90
2023-04-23T03:54:01.745Z,50.86
2023-04-23T03:55:33.238Z,51.37
2023-04-23T03:57:05.068Z,50.95
2023-04-23T03:58:36.817Z,51.12
2023-04-23T04:00:08.582Z,51.56
2023-04-23T04:01:40.140Z,51.46
2023-04-23T04:03:11.999Z,51.02
2023-04-23T04:04:46.609Z,51.81
2023-04-23T04:06:18.798Z,51.70
2023-04-23T04:07:50.372Z,51.54
2023-04-23T04:09:22.277Z,51.58
2023-04-23T04:10:54.001Z,51.85
2023-04-23T04:12:25.959Z,51.36
2023-04-23T04:13:57.509Z,51.60
2023-04-23T04:15:29.116Z,51.65
2023-04-23T04:17:00.666Z,51.80
2023-04-23T04:18:32.210Z,51.22
2023-04-23T04:20:03.899Z,51.44
2023-04-23T04:21:36.155Z,51.70
2023-04-23T04:23:07.671Z,51.75
2023-04-23T04:24:42.393Z,51.60
2023-04-23T04:26:15.364Z,51.75
2023-04-23T04:27:46.916Z,51.53
2023-04-23T04:29:20.096Z,51.56
2023-04-23T04:30:54.148Z,51.73
2023-04-23T04:32:27.279Z,51.52
2023-04-23T04:33:59.128Z,51.75
2023-04-23T04:35:31.306Z,51.50
2023-04-23T04:37:02.966Z,51.79
2023-04-23T04:38:34.557Z,51.47
2023-04-23T04:40:07.698Z,51.68
2023-04-23T04:41:39.606Z,51.40
2023-04-23T04:43:11.273Z,51.61
2023-04-23T04:44:43.821Z,51.83
2023-04-23T04:46:15.955Z,51.85
2023-04-23T04:47:48.198Z,52.10
2023-04-23T04:49:19.766Z,52.13
2023-04-23T04:50:51.801Z,52.28
2023-04-23T04:52:23.966Z,52.25
2023-04-23T04:53:56.841Z,52.19
2023-04-23T04:55:28.533Z,52.11
2023-04-23T04:57:00.147Z,52.07
2023-04-23T04:58:32.119Z,52.34
2023-04-23T05:00:07.067Z,51.94
2023-04-23T05:01:38.688Z,51.73
2023-04-23T05:03:13.433Z,52.30
2023-04-23T05:04:45.871Z,52.16
2023-04-23T05:06:17.749Z,52.20
2023-04-23T05:07:49.390Z,52.25
2023-04-23T05:09:21.071Z,52.16
2023-04-23T05:10:54.351Z,52.08
2023-04-23T05:12:26.038Z,52.39
2023-04-23T05:13:57.705Z,52.00
2023-04-23T05:15:29.417Z,52.20
2023-04-23T05:17:01.213Z,51.73
2023-04-23T05:18:32.872Z,51.84
2023-04-23T05:20:04.936Z,52.02
2023-04-23T05:21:36.682Z,51.93
2023-04-23T05:23:08.451Z,52.34
2023-04-23T05:24:40.267Z,52.11
2023-04-23T05:26:12.073Z,51.93
2023-04-23T05:27:43.655Z,51.98
2023-04-23T05:29:19.411Z,51.69
2023-04-23T05:30:51.222Z,51.85
2023-04-23T05:32:22.929Z,51.94
2023-04-23T05:33:55.237Z,51.44
2023-04-23T05:35:26.948Z,51.59
2023-04-23T05:36:58.540Z,51.56
2023-04-23T05:38:30.122Z,52.26
2023-04-23T05:40:02.883Z,52.00
2023-04-23T05:41:34.756Z,51.32
2023-04-23T05:43:07.090Z,51.67
2023-04-23T05:44:39.252Z,51.67
2023-04-23T05:46:11.389Z,51.82
2023-04-23T05:47:43.527Z,52.07
2023-04-23T05:49:15.884Z,52.25
2023-04-23T05:50:49.473Z,52.38
2023-04-23T05:52:21.482Z,51.56
2023-04-23T05:53:53.207Z,51.53
2023-04-23T05:55:24.913Z,51.82
2023-04-23T05:56:56.942Z,51.58
2023-04-23T05:58:28.987Z,52.05
2023-04-23T06:00:00.689Z,51.78
2023-04-23T06:01:33.246Z,52.49
2023-04-23T06:03:05.032Z,51.50
2023-04-23T06:04:37.838Z,51.89
2023-04-23T06:06:09.749Z,52.09
2023-04-23T06:07:42.414Z,52.05
2023-04-23T06:09:14.105Z,51.56
2023-04-23T06:10:46.320Z,51.60
2023-04-23T06:12:18.813Z,51.72
2023-04-23T06:13:50.768Z,51.53
2023-04-23T06:15:27.115Z,51.44
2023-04-23T06:16:58.822Z,51.46
2023-04-23T06:18:30.518Z,51.26
2023-04-23T06:20:02.329Z,51.09
2023-04-23T06:21:33.917Z,51.28
2023-04-23T06:23:06.611Z,51.45
2023-04-23T06:24:39.127Z,51.11
2023-04-23T06:26:11.128Z,51.15
2023-04-23T06:27:43.170Z,51.32
2023-04-23T06:29:14.696Z,51.28
2023-04-23T06:30:46.749Z,51.32
2023-04-23T06:32:20.591Z,51.04
2023-04-23T06:33:52.533Z,50.93
2023-04-23T06:35:24.160Z,51.03
2023-04-23T06:36:55.907Z,50.93
2023-04-23T06:38:27.510Z,50.92
2023-04-23T06:39:59.564Z,50.75
2023-04-23T06:41:31.379Z,50.39
2023-04-23T06:43:05.366Z,50.86
2023-04-23T06:44:36.914Z,50.30
2023-04-23T06:46:08.575Z,50.26
2023-04-23T06:47:40.316Z,50.63
2023-04-23T06:49:12.878Z,50.23
2023-04-23T06:50:44.797Z,50.54
2023-04-23T06:52:16.378Z,50.34
2023-04-23T06:53:48.030Z,50.38
2023-04-23T06:55:20.998Z,49.95
2023-04-23T06:56:52.801Z,49.94
2023-04-23T06:58:31.384Z,49.88
2023-04-23T07:00:03.087Z,50.36
2023-04-23T07:01:35.220Z,49.73
2023-04-23T07:03:07.019Z,49.89
2023-04-23T07:04:38.870Z,50.05
2023-04-23T07:06:11.550Z,49.88
2023-04-23T07:07:43.608Z,49.82
2023-04-23T07:09:15.477Z,49.62
2023-04-23T07:10:47.212Z,49.51
2023-04-23T07:12:19.372Z,49.78
2023-04-23T07:13:51.387Z,49.19
2023-04-23T07:15:23.249Z,49.42
2023-04-23T07:16:55.289Z,49.33
2023-04-23T07:18:27.172Z,48.98
2023-04-23T07:19:58.852Z,49.05
2023-04-23T07:21:30.795Z,48.65
2023-04-23T07:23:04.349Z,48.65
2023-04-23T07:24:36.038Z,48.95
2023-04-23T07:26:07.703Z,48.59
2023-04-23T07:27:39.310Z,48.61
2023-04-23T07:29:12.115Z,48.65
2023-04-23T07:30:43.787Z,48.70
2023-04-23T07:32:15.495Z,48.76
2023-04-23T07:33:47.802Z,48.80
2023-04-23T07:35:19.838Z,48.65
2023-04-23T07:36:52.340Z,48.64
2023-04-23T07:38:24.520Z,48.47
2023-04-23T07:39:56.074Z,48.10
2023-04-23T07:41:27.814Z,48.15
2023-04-23T07:42:59.708Z,48.03
2023-04-23T07:44:31.401Z,47.88
2023-04-23T07:46:03.319Z,47.89
2023-04-23T07:47:34.960Z,47.75
2023-04-23T07:49:08.023Z,47.72
2023-04-23T07:50:40.136Z,47.50
2023-04-23T07:52:12.288Z,47.17
2023-04-23T07:53:44.915Z,47.01
2023-04-23T07:55:16.590Z,47.03
2023-04-23T07:56:48.794Z,47.02
2023-04-23T07:58:20.656Z,46.92
2023-04-23T07:59:52.386Z,46.73
2023-04-23T08:01:24.144Z,46.70
2023-04-23T08:02:55.896Z,46.82
2023-04-23T08:04:28.115Z,46.71
2023-04-23T08:05:59.942Z,46.62
2023-04-23T08:07:32.038Z,46.66
2023-04-23T08:09:06.791Z,46.19
2023-04-23T08:10:38.441Z,46.30
2023-04-23T08:12:10.152Z,45.99
2023-04-23T08:13:41.778Z,45.93
2023-04-23T08:15:13.570Z,45.66
2023-04-23T08:16:45.419Z,45.55
2023-04-23T08:18:17.435Z,45.38
2023-04-23T08:19:49.064Z,45.35
2023-04-23T08:21:21.295Z,45.08
2023-04-23T08:22:53.972Z,45.20
2023-04-23T08:24:26.157Z,45.12
2023-04-23T08:25:57.836Z,45.05
2023-04-23T08:27:29.646Z,45.01
2023-04-23T08:29:01.327Z,44.72
2023-04-23T08:30:32.912Z,44.64
2023-04-23T08:32:07.034Z,44.56
2023-04-23T08:33:38.748Z,44.59
2023-04-23T08:35:10.814Z,44.33
2023-04-23T08:36:43.100Z,44.15
2023-04-23T08:38:14.655Z,44.51
2023-04-23T08:39:47.205Z,43.57
2023-04-23T08:41:19.024Z,43.55
2023-04-23T08:42:56.238Z,43.40
2023-04-23T08:44:29.090Z,43.70
2023-04-23T08:46:06.301Z,43.54
2023-04-23T08:47:40.811Z,43.46
2023-04-23T08:49:13.758Z,43.39
2023-04-23T08:50:45.498Z,43.27
2023-04-23T08:52:21.121Z,43.05
2023-04-23T08:53:53.063Z,42.73
2023-04-23T08:55:24.837Z,42.29
2023-04-23T08:56:58.412Z,42.25
2023-04-23T08:58:30.387Z,42.18
2023-04-23T09:00:01.994Z,42.08
2023-04-23T09:01:33.977Z,41.80
2023-04-23T09:03:06.503Z,41.95
2023-04-23T09:04:38.420Z,41.86
2023-04-23T09:06:10.332Z,41.82
2023-04-23T09:07:42.100Z,41.57
2023-04-23T09:09:17.522Z,41.59
2023-04-23T09:10:50.560Z,41.61
2023-04-23T09:12:22.241Z,41.70
2023-04-23T09:13:53.861Z,41.55
2023-04-23T09:15:25.654Z,41.41
2023-04-23T09:16:57.592Z,41.07
2023-04-23T09:18:29.335Z,40.87
2023-04-23T09:20:00.918Z,40.80
2023-04-23T09:21:33.490Z,40.49
2023-04-23T09:23:09.087Z,40.32
2023-04-23T09:24:44.080Z,40.12
2023-04-23T09:26:24.764Z,40.03
2023-04-23T09:27:56.419Z,39.96
2023-04-23T09:29:28.909Z,39.88
2023-04-23T09:31:01.001Z,39.91
2023-04-23T09:32:35.618Z,39.68
2023-04-23T09:34:07.370Z,39.58
2023-04-23T09:35:40.769Z,39.63
2023-04-23T09:37:12.956Z,39.81
2023-04-23T09:38:45.293Z,39.73
2023-04-23T09:40:17.357Z,39.68
2023-04-23T09:41:49.315Z,39.41
2023-04-23T09:43:21.070Z,39.04
2023-04-23T09:45:05.979Z,38.95
2023-04-23T09:46:38.596Z,38.67
2023-04-23T09:48:10.392Z,38.58
2023-04-23T09:49:46.484Z,38.42
2023-04-23T09:51:18.154Z,38.23
2023-04-23T09:52:54.041Z,38.38
2023-04-23T09:54:27.068Z,38.32
2023-04-23T09:55:58.678Z,38.13
2023-04-23T09:57:30.349Z,38.10
2023-04-23T09:59:02.136Z,37.86
2023-04-23T10:00:34.950Z,37.67
2023-04-23T10:02:07.534Z,37.58
2023-04-23T10:03:45.060Z,37.55
2023-04-23T10:05:25.061Z,37.32
2023-04-23T10:07:17.304Z,37.08
2023-04-23T10:08:50.994Z,36.93
2023-04-23T10:10:22.939Z,36.66
2023-04-23T10:11:55.601Z,36.56
2023-04-23T10:13:27.798Z,36.53
2023-04-23T10:14:59.876Z,36.42
2023-04-23T10:16:42.045Z,36.42
2023-04-23T10:18:20.624Z,36.56
2023-04-23T10:19:52.584Z,36.34
2023-04-23T10:21:26.909Z,36.04
2023-04-23T10:22:58.552Z,36.37
2023-04-23T10:24:30.695Z,36.46
2023-04-23T10:26:02.325Z,36.49
2023-04-23T10:27:51.253Z,36.29
2023-04-23T10:29:34.374Z,36.27
2023-04-23T10:31:06.138Z,35.84
2023-04-23T10:32:38.664Z,35.92
2023-04-23T10:34:10.832Z,35.67
2023-04-23T10:35:42.710Z,35.35
2023-04-23T10:37:15.322Z,35.15
2023-04-23T10:38:57.372Z,35.01
2023-04-23T10:40:30.798Z,35.04
2023-04-23T10:42:02.714Z,34.94
2023-04-23T10:43:34.313Z,34.86
2023-04-23T10:45:22.600Z,34.62
2023-04-23T10:47:00.907Z,34.52
2023-04-23T10:48:51.757Z,34.54
2023-04-23T10:50:24.727Z,34.46
2023-04-23T10:53:36.568Z,34.25
2023-04-23T10:55:16.644Z,33.98
2023-04-23T10:56:48.303Z,33.92
2023-04-23T10:58:22.111Z,33.92
2023-04-23T10:59:54.369Z,33.97
2023-04-23T11:01:26.958Z,33.74
2023-04-23T11:02:59.290Z,33.75
2023-04-23T11:04:31.294Z,33.98
2023-04-23T11:06:03.681Z,33.70
2023-04-23T11:07:35.640Z,33.80
2023-04-23T11:09:26.392Z,33.26
2023-04-23T11:10:58.853Z,33.15
2023-04-23T11:12:32.307Z,33.02
2023-04-23T11:14:03.901Z,32.99
2023-04-23T11:15:35.963Z,33.30
2023-04-23T11:17:07.678Z,33.33
2023-04-23T11:18:57.715Z,32.95
2023-04-23T11:20:29.243Z,33.22
2023-04-23T11:22:01.767Z,33.28
2023-04-23T11:23:33.417Z,33.05
2023-04-23T11:25:06.592Z,33.01
2023-04-23T11:26:38.321Z,32.52
2023-04-23T11:28:09.853Z,32.82
2023-04-23T11:29:42.179Z,32.32
2023-04-23T11:31:14.216Z,32.73
2023-04-23T11:32:46.493Z,32.67
2023-04-23T11:34:18.291Z,32.46
2023-04-23T11:35:50.609Z,32.70
2023-04-23T11:37:22.225Z,32.60
2023-04-23T11:38:56.498Z,32.25
2023-04-23T11:40:31.156Z,32.26
2023-04-23T11:42:03.528Z,32.00
2023-04-23T11:43:36.640Z,32.25
2023-04-23T11:45:14.989Z,32.18
2023-04-23T11:46:48.050Z,31.73
2023-04-23T11:48:19.820Z,31.87
2023-04-23T11:49:51.737Z,31.82
2023-04-23T11:51:26.713Z,31.88
2023-04-23T11:52:58.373Z,31.87
2023-04-23T11:54:30.089Z,31.14
2023-04-23T11:56:01.740Z,31.21
2023-04-23T11:57:37.888Z,31.18
2023-04-23T11:59:09.716Z,30.72
2023-04-23T12:00:41.553Z,30.69
2023-04-23T12:02:13.450Z,30.98
2023-04-23T12:03:49.103Z,31.01
2023-04-23T12:05:21.856Z,31.04
2023-04-23T12:06:54.338Z,31.04
2023-04-23T12:08:26.203Z,31.17
2023-04-23T12:10:00.885Z,31.20
2023-04-23T12:11:32.522Z,31.39
2023-04-23T12:13:04.161Z,31.27
2023-04-23T12:14:36.213Z,31.21
2023-04-23T12:16:09.188Z,31.06
2023-04-23T12:17:42.820Z,30.84
2023-04-23T12:19:15.858Z,30.82
2023-04-23T12:20:47.795Z,30.35
2023-04-23T12:22:20.204Z,30.35
2023-04-23T12:23:51.942Z,30.12
2023-04-23T12:25:24.167Z,30.08
2023-04-23T12:27:00.932Z,29.63
2023-04-23T12:28:33.232Z,29.82
2023-04-23T12:30:07.269Z,29.38
2023-04-23T12:31:39.323Z,29.50
2023-04-23T12:33:11.498Z,29.18
2023-04-23T12:34:55.141Z,29.40
2023-04-23T12:36:27.638Z,29.47
2023-04-23T12:37:59.355Z,29.16
2023-04-23T12:39:32.239Z,29.21
2023-04-23T12:41:03.858Z,29.25
2023-04-23T12:42:36.386Z,29.42
2023-04-23T12:44:08.472Z,29.25
2023-04-23T12:45:40.172Z,28.84
2023-04-23T12:47:12.056Z,28.58
2023-04-23T12:48:43.730Z,28.87
2023-04-23T12:50:15.771Z,28.70
2023-04-23T12:51:47.345Z,28.79
2023-04-23T12:53:18.958Z,28.69
2023-04-23T12:54:56.705Z,28.81
2023-04-23T12:56:28.455Z,28.60
2023-04-23T12:58:00.065Z,28.44
2023-04-23T12:59:32.014Z,28.50
2023-04-23T13:01:03.690Z,28.39
2023-04-23T13:02:35.523Z,28.25
2023-04-23T13:04:07.924Z,28.14
2023-04-23T13:05:39.734Z,28.15
2023-04-23T13:07:11.376Z,27.84
2023-04-23T13:08:43.100Z,27.73
2023-04-23T13:10:15.187Z,27.62
2023-04-23T13:11:48.814Z,27.80
2023-04-23T13:13:20.740Z,27.69
2023-04-23T13:14:52.611Z,27.81
2023-04-23T13:16:24.441Z,27.89
2023-04-23T13:17:56.203Z,27.95
2023-04-23T13:19:27.865Z,27.53
2023-04-23T13:20:59.534Z,27.49
2023-04-23T13:22:32.130Z,27.99
2023-04-23T13:24:04.008Z,28.03
2023-04-23T13:25:35.609Z,27.96
2023-04-23T13:27:07.334Z,28.02
2023-04-23T13:28:39.200Z,28.02
2023-04-23T13:30:11.281Z,28.02
2023-04-23T13:31:43.064Z,27.91
2023-04-23T13:33:15.044Z,28.04
2023-04-23T13:34:46.709Z,27.98
2023-04-23T13:36:18.631Z,27.82
2023-04-23T13:37:50.875Z,27.73
2023-04-23T13:39:23.846Z,27.79
2023-04-23T13:40:55.455Z,27.87
2023-04-23T13:42:27.033Z,27.87
2023-04-23T13:43:58.837Z,27.63
2023-04-23T13:45:30.786Z,27.62
2023-04-23T13:47:02.819Z,27.51
2023-04-23T13:48:34.960Z,27.26
2023-04-23T13:50:07.446Z,27.25
2023-04-23T13:51:39.313Z,27.35
2023-04-23T13:53:11.236Z,27.00
2023-04-23T13:54:42.823Z,27.17
2023-04-23T13:56:14.363Z,27.05
2023-04-23T13:57:46.167Z,27.08
2023-04-23T13:59:19.983Z,27.06
2023-04-23T14:00:52.742Z,27.05
2023-04-23T14:02:24.439Z,27.08
2023-04-23T14:03:57.321Z,27.03
2023-04-23T14:05:28.949Z,26.88
2023-04-23T14:07:00.752Z,26.99
2023-04-23T14:08:32.368Z,27.02
2023-04-23T14:10:04.650Z,27.00
2023-04-23T14:11:36.418Z,27.10
2023-04-23T14:13:07.987Z,26.97
2023-04-23T14:14:39.584Z,27.00
2023-04-23T14:16:11.370Z,26.99
2023-04-23T14:17:44.336Z,27.09
2023-04-23T14:19:15.904Z,26.95
2023-04-23T14:20:47.475Z,26.88
2023-04-23T14:22:19.071Z,26.90
2023-04-23T14:23:51.753Z,27.04
2023-04-23T14:25:30.331Z,26.97
2023-04-23T14:27:03.855Z,26.96
2023-04-23T14:28:41.201Z,26.95
2023-04-23T14:30:16.793Z,26.97
2023-04-23T14:31:48.416Z,26.90
2023-04-23T14:33:19.937Z,26.92
2023-04-23T14:34:51.887Z,26.81
2023-04-23T14:36:23.953Z,26.80
2023-04-23T14:37:55.536Z,26.62
2023-04-23T14:39:27.216Z,26.60
2023-04-23T14:40:59.090Z,26.55
2023-04-23T14:42:30.737Z,26.76
2023-04-23T14:44:02.408Z,26.65
2023-04-23T14:45:33.976Z,26.55
2023-04-23T14:47:08.251Z,26.47
2023-04-23T14:48:40.401Z,26.54
2023-04-23T14:50:12.058Z,26.44
2023-04-23T14:51:44.063Z,26.52
2023-04-23T14:53:15.647Z,26.43
2023-04-23T14:54:47.296Z,26.54
2023-04-23T14:56:18.948Z,26.46
2023-04-23T14:57:51.059Z,26.55
2023-04-23T14:59:23.058Z,26.47
2023-04-23T15:00:54.656Z,26.53
2023-04-23T15:02:27.031Z,26.59
2023-04-23T15:03:58.882Z,26.64
2023-04-23T15:05:30.666Z,26.73
2023-04-23T15:07:02.812Z,27.02
2023-04-23T15:08:34.389Z,26.92
2023-04-23T15:10:06.667Z,27.03
2023-04-23T15:11:38.978Z,27.05
2023-04-23T15:13:13.972Z,27.19
2023-04-23T15:14:46.519Z,27.22
2023-04-23T15:16:46.650Z,27.46
2023-04-23T15:18:19.587Z,27.40
2023-04-23T15:19:54.465Z,27.50
2023-04-23T15:21:26.173Z,27.61
2023-04-23T15:22:57.917Z,27.49
2023-04-23T15:24:29.525Z,27.58
2023-04-23T15:26:01.820Z,27.48
2023-04-23T15:27:33.450Z,27.61
2023-04-23T15:29:06.230Z,27.72
2023-04-23T15:30:39.943Z,27.70
2023-04-23T15:32:12.291Z,27.50
2023-04-23T15:33:44.740Z,27.73
2023-04-23T15:35:16.515Z,27.72
2023-04-23T15:36:48.057Z,27.83
2023-04-23T15:38:20.401Z,27.84
2023-04-23T15:39:52.078Z,27.90
2023-04-23T15:41:23.715Z,27.91
2023-04-23T15:42:55.870Z,27.91
2023-04-23T15:44:27.594Z,27.94
2023-04-23T15:46:01.599Z,27.98
2023-04-23T15:47:33.241Z,28.03
2023-04-23T15:49:05.745Z,28.06
2023-04-23T15:50:37.672Z,28.10
2023-04-23T15:52:09.391Z,28.00
2023-04-23T15:53:41.052Z,28.06
2023-04-23T15:55:12.670Z,28.07
2023-04-23T15:56:44.890Z,28.10
2023-04-23T15:58:16.826Z,28.22
2023-04-23T15:59:48.549Z,28.25
2023-04-23T16:01:22.264Z,28.39
2023-04-23T16:02:55.379Z,28.58
2023-04-23T16:04:27.270Z,28.69
2023-04-23T16:05:59.070Z,28.87
2023-04-23T16:07:30.982Z,28.66
2023-04-23T16:09:03.754Z,28.92
2023-04-23T16:10:35.398Z,28.92
2023-04-23T16:12:07.981Z,28.99
2023-04-23T16:13:40.985Z,29.05
2023-04-23T16:15:12.954Z,29.19
2023-04-23T16:16:44.681Z,29.21
2023-04-23T16:18:16.579Z,29.15
2023-04-23T16:19:48.350Z,29.25
2023-04-23T16:21:23.129Z,29.38
2023-04-23T16:22:55.031Z,29.08
2023-04-23T16:24:26.778Z,29.37
2023-04-23T16:25:58.757Z,29.62
2023-04-23T16:27:30.371Z,29.38
2023-04-23T16:30:36.360Z,29.27
2023-04-23T16:32:08.262Z,29.64
2023-04-23T16:33:40.817Z,29.61
2023-04-23T16:35:12.508Z,29.57
2023-04-23T16:36:44.094Z,29.82
2023-04-23T16:38:15.722Z,29.88
2023-04-23T16:39:47.265Z,29.82
2023-04-23T16:41:19.918Z,29.67
2023-04-23T16:42:51.521Z,29.73
2023-04-23T16:44:23.109Z,29.86
2023-04-23T16:45:54.669Z,29.85
2023-04-23T16:47:26.705Z,29.91
2023-04-23T16:48:58.385Z,29.82
2023-04-23T16:50:30.076Z,29.92
2023-04-23T16:52:03.585Z,30.09
2023-04-23T16:53:36.306Z,30.08
2023-04-23T16:55:08.011Z,30.02
2023-04-23T16:56:39.936Z,30.04
2023-04-23T16:58:12.262Z,30.03
2023-04-23T16:59:43.812Z,29.85
2023-04-23T17:01:16.656Z,30.08
2023-04-23T17:02:48.273Z,29.92
2023-04-23T17:04:20.246Z,30.15
2023-04-23T17:05:55.093Z,30.17
2023-04-23T17:07:26.861Z,30.12
2023-04-23T17:08:59.134Z,30.04
2023-04-23T17:10:31.446Z,30.34
2023-04-23T17:12:03.083Z,30.48
2023-04-23T17:13:35.089Z,30.34
2023-04-23T17:15:07.142Z,30.44
2023-04-23T17:16:38.885Z,30.33
2023-04-23T17:18:12.453Z,30.45
2023-04-23T17:19:45.964Z,30.56
2023-04-23T17:21:17.470Z,30.64
2023-04-23T17:22:49.358Z,30.61
2023-04-23T17:24:20.930Z,30.83
2023-04-23T17:25:52.561Z,30.91
2023-04-23T17:27:24.101Z,30.83
2023-04-23T17:28:56.927Z,31.05
2023-04-23T17:30:28.571Z,31.14
2023-04-23T17:32:00.281Z,31.15
2023-04-23T17:33:31.792Z,31.34
2023-04-23T17:35:10.075Z,31.49
2023-04-23T17:36:42.398Z,31.60
2023-04-23T17:38:14.319Z,31.46
2023-04-23T17:39:46.238Z,31.55
2023-04-23T17:41:19.275Z,31.50
2023-04-23T17:42:50.806Z,31.61
2023-04-23T17:44:22.652Z,31.76
2023-04-23T17:45:54.319Z,31.79
2023-04-23T17:47:26.254Z,32.00
2023-04-23T17:48:58.443Z,32.27
2023-04-23T17:50:30.247Z,32.51
2023-04-23T17:52:03.416Z,32.57
2023-04-23T17:53:35.038Z,32.42
2023-04-23T17:55:07.632Z,32.55
2023-04-23T17:56:39.711Z,32.57
2023-04-23T17:58:11.236Z,32.61
2023-04-23T17:59:43.039Z,32.64
2023-04-23T18:01:15.576Z,33.18
2023-04-23T18:02:47.364Z,32.98
2023-04-23T18:04:19.701Z,33.22
2023-04-23T18:05:51.826Z,33.00
2023-04-23T18:07:23.880Z,33.27
2023-04-23T18:08:55.542Z,33.45
2023-04-23T18:10:27.489Z,33.66
2023-04-23T18:12:00.868Z,33.61
2023-04-23T18:13:32.463Z,33.61
2023-04-23T18:15:04.417Z,33.38
2023-04-23T18:16:36.052Z,33.62
2023-04-23T18:18:08.225Z,33.18
2023-04-23T18:19:39.901Z,33.79
2023-04-23T18:21:14.943Z,33.57
2023-04-23T18:22:46.560Z,33.49
2023-04-23T18:24:21.127Z,33.91
2023-04-23T18:25:52.778Z,33.97
2023-04-23T18:27:25.467Z,33.70
2023-04-23T18:28:57.146Z,33.89
2023-04-23T18:30:29.403Z,33.88
2023-04-23T18:32:00.966Z,34.36
2023-04-23T18:33:36.651Z,34.18
2023-04-23T18:35:09.107Z,34.06
2023-04-23T18:36:42.157Z,34.14
2023-04-23T18:38:24.271Z,34.39
2023-04-23T18:39:58.753Z,34.65
2023-04-23T18:41:31.629Z,34.83
2023-04-23T18:43:03.308Z,34.45
2023-04-23T18:44:35.314Z,34.78
2023-04-23T18:46:07.044Z,34.23
2023-04-23T18:47:44.393Z,34.32
2023-04-23T18:49:35.064Z,34.45
2023-04-23T18:51:19.360Z,34.54
2023-04-23T18:52:50.857Z,34.38
2023-04-23T18:54:23.886Z,34.78
2023-04-23T18:55:55.446Z,34.66
2023-04-23T18:57:27.180Z,34.43
2023-04-23T18:58:58.893Z,34.62
2023-04-23T19:00:31.084Z,34.87
2023-04-23T19:02:03.896Z,34.73
2023-04-23T19:03:35.877Z,34.97
2023-04-23T19:05:07.976Z,35.24
2023-04-23T19:06:39.628Z,35.42
2023-04-23T19:08:12.183Z,35.40
2023-04-23T19:09:44.108Z,34.95
2023-04-23T19:11:16.261Z,35.09
2023-04-23T19:12:48.032Z,35.24
2023-04-23T19:14:19.830Z,35.38
2023-04-23T19:15:51.647Z,35.57
2023-04-23T19:17:23.280Z,35.60
2023-04-23T19:18:55.581Z,35.66
2023-04-23T19:20:27.784Z,35.54
2023-04-23T19:22:01.117Z,35.27
2023-04-23T19:23:32.796Z,35.63
2023-04-23T19:25:04.980Z,35.39
2023-04-23T19:26:36.842Z,35.63
2023-04-23T19:28:08.559Z,35.71
2023-04-23T19:29:40.695Z,36.09
2023-04-23T19:31:12.755Z,36.11
2023-04-23T19:32:45.016Z,35.88
2023-04-23T19:34:19.325Z,36.16
2023-04-23T19:35:51.066Z,35.99
2023-04-23T19:37:22.869Z,36.01
2023-04-23T19:38:54.446Z,36.12
2023-04-23T19:40:26.129Z,36.21
2023-04-23T19:41:57.776Z,36.24
2023-04-23T19:43:29.856Z,36.27
2023-04-23T19:45:01.620Z,36.40
2023-04-23T19:46:33.300Z,36.41
2023-04-23T19:48:05.054Z,36.39
2023-04-23T19:49:36.726Z,36.34
2023-04-23T19:51:08.600Z,36.59
2023-04-23T19:52:40.540Z,36.75
2023-04-23T19:54:12.105Z,36.62
2023-04-23T19:55:43.872Z,36.49